1T7 weather

Kestrel Airpark
San Antonio, Texas, United States

Public forecast

Using degrees Fahrenheit for public forecast. Weather courtesy of forecast.io.

METAR (pilot weather report)

Closest report is Boerne Stage Field, 15.0 nm (27.8 km) WSW. Retrieved 2019/07/19 00:35 UTC (5 minutes ago):

K5C1 190035Z AUTO 14008KT 110V170 10SM CLR 32/19 A2994 RMK AO1

TAF (pilot weather forecast)

Forecast is more than 12 hours old.

Closest forecast is San Antonio International Airport, 16.9 nm (31.3 km) S. Retrieved 2019/07/18 00:40 UTC (1 day ago):

TAF KSAT 182338Z 1900/2006 14014KT P6SM SCT070 SCT250 FM191000 17010KT P6SM BKN010 FM191400 16015KT P6SM SCT025 FM192100 14014KT P6SM FEW050 SCT250